Time;durP1;ratioP1;P1;durP2;ratioP2;P2;SDS_P1;SDS_P2;PMS_P1;PMS_P2;Temp;Humidity;BMP_temperature;BMP_pressure;BME280_temperature;BME280_humidity;BME280_pressure;Samples;Min_cycle;Max_cycle;Signal;HPM_P1;HPM_P2
2021/06/09 00:00:08;;;;;;;3.42;2.97;;;18.50;55.10;;;;;;5066317;28;20029;-73
2021/06/09 00:02:36;;;;;;;3.42;3.13;;;18.50;55.30;;;;;;5067060;28;20052;-72
2021/06/09 00:05:03;;;;;;;3.80;3.15;;;18.40;55.10;;;;;;5066881;28;20383;-72
2021/06/09 00:07:29;;;;;;;3.35;3.00;;;18.40;55.20;;;;;;5071092;28;20048;-73
2021/06/09 00:09:55;;;;;;;3.70;3.05;;;18.30;55.10;;;;;;5071656;28;20589;-73
2021/06/09 00:12:22;;;;;;;3.15;2.80;;;18.30;55.20;;;;;;5066499;28;20106;-72
2021/06/09 00:14:48;;;;;;;3.25;2.78;;;18.20;55.10;;;;;;5064870;28;20036;-72
2021/06/09 00:17:14;;;;;;;5.88;2.88;;;18.20;55.10;;;;;;5066077;28;20036;-73
2021/06/09 00:19:40;;;;;;;2.90;2.60;;;18.20;55.30;;;;;;5064820;28;20067;-72
2021/06/09 00:22:07;;;;;;;3.00;2.75;;;18.10;55.10;;;;;;5064496;28;20032;-72
2021/06/09 00:24:34;;;;;;;4.47;3.00;;;18.10;55.20;;;;;;5064452;28;20029;-72
2021/06/09 00:27:00;;;;;;;2.95;2.60;;;18.00;55.10;;;;;;5064113;28;20158;-72
2021/06/09 00:29:26;;;;;;;2.80;2.60;;;18.00;55.20;;;;;;5065243;28;20043;-75
2021/06/09 00:31:52;;;;;;;4.43;2.85;;;18.00;55.30;;;;;;5065655;28;20032;-76
2021/06/09 00:34:18;;;;;;;3.25;2.95;;;17.90;55.20;;;;;;5064265;28;20467;-75
2021/06/09 00:36:44;;;;;;;3.50;3.00;;;17.90;55.30;;;;;;5065528;28;20067;-75
2021/06/09 00:39:10;;;;;;;3.15;2.85;;;17.80;55.20;;;;;;5065663;28;20102;-75
2021/06/09 00:41:37;;;;;;;3.20;2.90;;;17.80;55.20;;;;;;5047708;28;20098;-74
2021/06/09 00:44:04;;;;;;;3.63;2.70;;;17.80;55.30;;;;;;5065177;28;20032;-74
2021/06/09 00:46:36;;;;;;;4.80;3.10;;;17.70;55.20;;;;;;5069586;28;20033;-74
2021/06/09 00:49:03;;;;;;;2.88;2.60;;;17.70;55.30;;;;;;5067760;28;20064;-74
2021/06/09 00:51:29;;;;;;;4.10;3.17;;;17.60;55.20;;;;;;5068169;28;20036;-74
2021/06/09 00:54:01;;;;;;;3.20;2.90;;;17.60;55.30;;;;;;5068546;28;20479;-74
2021/06/09 00:56:27;;;;;;;2.80;2.60;;;17.50;55.20;;;;;;5069019;28;20061;-74
2021/06/09 00:58:54;;;;;;;3.90;2.65;;;17.50;55.20;;;;;;5067522;28;20185;-74
2021/06/09 01:01:24;;;;;;;3.72;3.03;;;17.50;55.30;;;;;;5051275;28;20028;-73
2021/06/09 01:03:51;;;;;;;5.15;3.20;;;17.40;55.20;;;;;;5067291;28;20451;-74
2021/06/09 01:06:17;;;;;;;3.72;3.13;;;17.40;55.30;;;;;;5069021;28;20138;-75
2021/06/09 01:08:44;;;;;;;3.45;2.72;;;17.30;55.20;;;;;;5067389;28;20032;-75
2021/06/09 01:11:12;;;;;;;4.50;3.30;;;17.30;55.30;;;;;;5068908;28;20040;-75
2021/06/09 01:13:39;;;;;;;3.72;3.25;;;17.30;55.40;;;;;;5068801;28;20028;-75
2021/06/09 01:16:05;;;;;;;3.70;2.80;;;17.30;55.40;;;;;;5068099;28;20467;-75
2021/06/09 01:18:32;;;;;;;2.92;2.72;;;17.20;55.30;;;;;;5067331;28;20394;-75
2021/06/09 01:20:59;;;;;;;4.80;3.30;;;17.10;55.20;;;;;;5066970;28;20387;-75
2021/06/09 01:23:26;;;;;;;3.45;2.95;;;17.10;55.20;;;;;;5067501;28;20552;-74
2021/06/09 01:25:53;;;;;;;3.63;3.10;;;17.10;55.30;;;;;;5067242;28;20025;-74
2021/06/09 01:28:19;;;;;;;2.88;2.47;;;17.10;55.40;;;;;;5066953;28;20037;-73
2021/06/09 01:30:46;;;;;;;3.22;2.90;;;17.00;55.30;;;;;;5081650;22;20036;-74
2021/06/09 01:33:12;;;;;;;3.42;3.13;;;17.00;55.30;;;;;;5051529;28;20494;-76
2021/06/09 01:35:38;;;;;;;3.72;3.30;;;16.90;55.20;;;;;;5051895;28;20066;-75
2021/06/09 01:38:06;;;;;;;4.13;3.20;;;16.90;55.30;;;;;;5069603;28;20498;-76
2021/06/09 01:40:33;;;;;;;3.15;2.80;;;16.90;55.40;;;;;;5052037;28;20053;-76
2021/06/09 01:42:59;;;;;;;3.47;3.05;;;16.80;55.20;;;;;;5051455;28;20212;-75
2021/06/09 01:48:03;;;;;;;4.25;3.10;;;16.80;55.50;;;;;;5053840;28;20133;-79
2021/06/09 01:50:30;;;;;;;4.07;3.30;;;16.70;55.20;;;;;;5072047;28;20074;-80
2021/06/09 01:52:57;;;;;;;3.03;2.72;;;16.70;55.30;;;;;;5055508;28;20103;-79
2021/06/09 01:55:25;;;;;;;2.97;2.67;;;16.70;55.40;;;;;;5054774;28;20025;-80
2021/06/09 01:57:52;;;;;;;3.15;2.83;;;16.60;55.30;;;;;;5072907;28;20464;-81
2021/06/09 02:00:30;;;;;;;3.97;3.08;;;16.60;55.40;;;;;;5072828;28;20500;-78
2021/06/09 02:03:00;;;;;;;3.13;2.90;;;16.50;55.30;;;;;;5055157;28;20032;-81
2021/06/09 02:05:33;;;;;;;4.55;3.10;;;16.50;55.20;;;;;;5055336;28;20063;-80
2021/06/09 02:08:01;;;;;;;3.13;2.83;;;16.40;55.20;;;;;;5038250;28;20038;-80
2021/06/09 02:10:28;;;;;;;3.03;2.70;;;16.40;55.20;;;;;;5054725;28;20072;-80
2021/06/09 02:12:57;;;;;;;3.53;3.22;;;16.40;55.30;;;;;;5072381;28;20024;-80
2021/06/09 02:15:24;;;;;;;4.10;2.88;;;16.40;55.30;;;;;;5072572;28;20028;-80
2021/06/09 02:17:57;;;;;;;3.85;3.38;;;16.30;55.20;;;;;;5054794;28;20034;-81
2021/06/09 02:20:25;;;;;;;2.88;2.60;;;16.30;55.30;;;;;;5072440;28;20043;-80
2021/06/09 02:22:52;;;;;;;3.00;2.78;;;16.30;55.30;;;;;;5054677;28;20028;-81
2021/06/09 02:25:19;;;;;;;4.20;2.80;;;16.20;55.20;;;;;;5055680;28;20060;-80
2021/06/09 02:27:45;;;;;;;3.97;3.35;;;16.20;55.30;;;;;;5072496;28;20029;-80
2021/06/09 02:30:12;;;;;;;2.67;2.47;;;16.20;55.30;;;;;;5072731;28;20033;-79
2021/06/09 02:32:40;;;;;;;3.95;2.90;;;16.20;55.40;;;;;;5072275;28;20035;-80
2021/06/09 02:35:12;;;;;;;3.30;3.00;;;16.10;55.30;;;;;;5072650;28;20614;-81
2021/06/09 02:37:39;;;;;;;3.53;3.23;;;16.10;55.40;;;;;;5072610;28;20078;-81
2021/06/09 02:40:08;;;;;;;5.10;3.35;;;16.00;55.10;;;;;;5072827;28;20052;-81
2021/06/09 02:42:38;;;;;;;3.80;3.40;;;16.00;55.20;;;;;;5072186;28;20177;-80
2021/06/09 02:45:10;;;;;;;3.47;3.17;;;16.00;55.30;;;;;;5054548;28;20109;-80
2021/06/09 02:47:39;;;;;;;3.25;2.95;;;16.00;55.40;;;;;;5071887;28;20043;-80
2021/06/09 02:50:07;;;;;;;3.45;3.15;;;15.90;55.20;;;;;;5037759;28;20500;-79
2021/06/09 02:52:49;;;;;;;4.07;3.05;;;15.90;55.20;;;;;;5053685;28;20032;-79
2021/06/09 02:55:34;;;;;;;3.03;2.67;;;15.90;55.40;;;;;;5054202;28;20032;-79
2021/06/09 02:58:21;;;;;;;3.22;3.03;;;15.80;55.20;;;;;;5072014;28;20028;-79
2021/06/09 03:01:26;;;;;;;3.38;3.08;;;15.80;55.20;;;;;;5071794;28;20032;-79
2021/06/09 03:03:59;;;;;;;3.90;3.50;;;15.80;55.30;;;;;;5071627;28;20495;-79
2021/06/09 03:06:36;;;;;;;3.97;3.50;;;15.70;55.00;;;;;;5054041;28;20372;-81
2021/06/09 03:09:10;;;;;;;3.55;3.30;;;15.70;55.10;;;;;;5071832;28;20033;-80
2021/06/09 03:11:55;;;;;;;3.65;3.33;;;15.70;55.20;;;;;;5071802;28;20032;-79
2021/06/09 03:17:38;;;;;;;3.50;3.20;;;15.60;55.20;;;;;;5071695;28;20484;-78
2021/06/09 03:20:15;;;;;;;3.78;3.38;;;15.60;55.10;;;;;;5071504;28;20032;-79
2021/06/09 03:23:05;;;;;;;3.90;3.00;;;15.50;55.10;;;;;;5071888;28;20488;-79
2021/06/09 03:25:40;;;;;;;3.55;3.25;;;15.50;55.20;;;;;;5053791;28;20028;-79
2021/06/09 03:28:19;;;;;;;3.63;3.33;;;15.50;55.20;;;;;;5053997;28;20041;-79
2021/06/09 03:31:00;;;;;;;3.92;3.45;;;15.40;55.10;;;;;;5053520;28;20047;-79
2021/06/09 03:33:32;;;;;;;3.67;3.38;;;15.40;55.10;;;;;;5071439;28;20127;-79
2021/06/09 03:36:10;;;;;;;3.70;3.40;;;15.40;55.10;;;;;;5071435;28;20064;-79
2021/06/09 03:38:48;;;;;;;3.60;3.30;;;15.30;55.10;;;;;;5071393;28;22422;-79
2021/06/09 03:41:16;;;;;;;3.55;3.25;;;15.30;55.10;;;;;;5071128;28;20084;-79
2021/06/09 03:43:47;;;;;;;3.72;3.30;;;15.30;55.10;;;;;;5053370;28;20383;-79
2021/06/09 03:46:15;;;;;;;3.60;3.30;;;15.20;55.00;;;;;;5071406;28;20446;-79
2021/06/09 03:48:44;;;;;;;3.90;3.60;;;15.30;55.20;;;;;;5071303;28;20021;-79
2021/06/09 03:51:11;;;;;;;3.50;3.20;;;15.20;55.00;;;;;;5053326;28;20573;-79
2021/06/09 03:53:39;;;;;;;3.67;3.30;;;15.20;55.10;;;;;;5071191;28;20032;-80
2021/06/09 03:56:08;;;;;;;3.97;3.17;;;15.20;55.10;;;;;;5069919;28;20127;-78
2021/06/09 03:58:35;;;;;;;3.35;3.08;;;15.20;55.20;;;;;;5053397;28;20388;-79
2021/06/09 04:01:02;;;;;;;3.47;3.17;;;15.10;55.00;;;;;;5036852;28;20055;-79
2021/06/09 04:03:29;;;;;;;3.47;3.17;;;15.10;55.10;;;;;;5071137;28;20047;-79
2021/06/09 04:05:57;;;;;;;3.13;2.83;;;15.10;55.20;;;;;;5070915;28;20498;-79
2021/06/09 04:08:25;;;;;;;4.32;3.28;;;15.10;55.20;;;;;;5071185;28;20024;-79
2021/06/09 04:10:53;;;;;;;3.35;3.05;;;15.10;55.20;;;;;;5070915;28;20036;-79
2021/06/09 04:13:21;;;;;;;3.70;3.40;;;15.00;55.10;;;;;;5071088;28;20029;-78
2021/06/09 04:15:50;;;;;;;3.80;3.50;;;15.00;55.10;;;;;;5052576;28;20024;-79
2021/06/09 04:18:17;;;;;;;3.67;3.05;;;15.00;55.20;;;;;;5071036;28;20407;-79
2021/06/09 04:20:44;;;;;;;3.58;3.28;;;14.90;55.00;;;;;;5039902;28;20032;-79
2021/06/09 04:23:10;;;;;;;3.50;3.20;;;15.00;55.20;;;;;;5056992;28;20028;-79
2021/06/09 04:25:37;;;;;;;3.50;3.20;;;14.90;55.10;;;;;;5074707;28;20121;-78
2021/06/09 04:28:05;;;;;;;3.78;3.47;;;14.90;55.10;;;;;;5075059;28;20301;-79
2021/06/09 04:30:31;;;;;;;3.58;3.28;;;14.90;55.10;;;;;;5056607;28;20028;-79
2021/06/09 04:33:04;;;;;;;3.75;3.45;;;14.90;55.10;;;;;;5056781;28;20120;-79
2021/06/09 04:35:42;;;;;;;4.05;3.22;;;14.80;55.00;;;;;;5074460;28;20032;-79
2021/06/09 04:38:26;;;;;;;3.42;3.13;;;14.80;55.00;;;;;;5074772;28;20059;-79
2021/06/09 04:40:52;;;;;;;3.67;3.30;;;14.90;55.30;;;;;;5056898;28;20052;-79
2021/06/09 04:43:25;;;;;;;3.38;3.17;;;14.80;55.00;;;;;;5056640;28;20535;-79
2021/06/09 04:45:51;;;;;;;4.35;3.15;;;14.80;55.10;;;;;;5039829;28;20040;-79
2021/06/09 04:48:18;;;;;;;3.88;3.45;;;14.80;55.00;;;;;;5060169;28;20100;-80
2021/06/09 04:50:47;;;;;;;3.38;2.92;;;14.80;55.00;;;;;;5033427;28;20029;-79
2021/06/09 04:53:18;;;;;;;3.33;3.03;;;14.80;55.10;;;;;;5033379;28;20029;-79
2021/06/09 04:55:46;;;;;;;3.72;3.17;;;14.80;55.10;;;;;;5033370;28;20029;-79
2021/06/09 04:58:14;;;;;;;3.45;3.15;;;14.80;55.10;;;;;;5059238;28;20044;-80
2021/06/09 05:00:42;;;;;;;3.60;3.30;;;14.80;55.20;;;;;;5071036;28;20047;-80
2021/06/09 05:03:08;;;;;;;3.55;3.25;;;14.80;55.20;;;;;;5062404;28;20021;-79
2021/06/09 05:05:34;;;;;;;3.58;3.28;;;14.80;55.20;;;;;;5049560;28;20560;-79
2021/06/09 05:08:00;;;;;;;3.20;3.00;;;14.80;55.20;;;;;;5054861;28;20104;-80
2021/06/09 05:10:27;;;;;;;3.72;3.42;;;14.80;55.20;;;;;;5051408;28;20043;-79
2021/06/09 05:12:58;;;;;;;3.78;3.47;;;14.80;55.20;;;;;;5069570;28;20078;-79
2021/06/09 05:15:27;;;;;;;3.40;3.10;;;14.80;55.20;;;;;;5051795;28;20369;-80
2021/06/09 05:17:53;;;;;;;3.72;3.42;;;14.80;55.20;;;;;;5051569;28;20111;-80
2021/06/09 05:20:25;;;;;;;4.65;3.40;;;14.80;55.20;;;;;;5068917;28;20131;-79
2021/06/09 05:23:07;;;;;;;3.72;3.33;;;14.80;55.20;;;;;;5069147;28;20024;-79
2021/06/09 05:25:36;;;;;;;3.85;3.50;;;14.80;55.40;;;;;;5069206;28;20480;-79
2021/06/09 05:28:03;;;;;;;3.75;3.30;;;14.80;55.20;;;;;;5069103;28;20059;-78
2021/06/09 05:30:30;;;;;;;3.58;3.10;;;14.80;55.20;;;;;;5049667;28;20033;-79
2021/06/09 05:32:56;;;;;;;3.65;3.25;;;14.90;55.40;;;;;;5068666;28;20479;-78
2021/06/09 05:35:23;;;;;;;3.75;3.45;;;14.90;55.40;;;;;;5068848;28;20025;-78
2021/06/09 05:37:50;;;;;;;3.50;3.20;;;14.90;55.40;;;;;;5048087;28;20382;-80
2021/06/09 05:40:17;;;;;;;3.72;3.28;;;14.90;55.40;;;;;;5049144;28;20446;-82
2021/06/09 05:42:45;;;;;;;3.95;3.53;;;14.90;55.50;;;;;;5056381;28;20435;-81
2021/06/09 05:45:12;;;;;;;3.58;3.13;;;15.00;55.60;;;;;;5051585;28;20037;-81
2021/06/09 05:47:43;;;;;;;3.95;3.50;;;15.00;55.60;;;;;;5050537;28;20404;-81
2021/06/09 05:50:14;;;;;;;3.60;3.30;;;15.00;55.70;;;;;;5050997;28;20032;-81
2021/06/09 05:52:40;;;;;;;2.80;2.60;;;15.10;55.90;;;;;;5069071;28;20471;-83
2021/06/09 05:55:17;;;;;;;4.78;3.58;;;15.20;56.00;;;;;;5035199;28;20040;-82
2021/06/09 05:57:45;;;;;;;3.70;3.40;;;15.30;56.30;;;;;;5068915;28;20071;-82
2021/06/09 06:00:12;;;;;;;3.30;3.10;;;15.30;56.20;;;;;;5050314;28;20036;-79
2021/06/09 06:02:38;;;;;;;3.38;3.08;;;15.40;56.40;;;;;;5068790;28;20024;-79
2021/06/09 06:05:08;;;;;;;3.28;3.08;;;15.50;56.50;;;;;;5068458;28;20474;-79
2021/06/09 06:07:35;;;;;;;4.32;3.00;;;15.60;56.80;;;;;;5068750;28;20028;-79
2021/06/09 06:10:04;;;;;;;4.55;3.10;;;15.70;56.90;;;;;;5051433;28;20020;-81
2021/06/09 06:12:32;;;;;;;3.40;3.03;;;15.90;57.30;;;;;;5046945;28;20033;-81
2021/06/09 06:14:58;;;;;;;3.50;3.20;;;16.00;57.40;;;;;;5048636;28;20025;-82
2021/06/09 06:17:24;;;;;;;3.47;3.17;;;16.20;57.70;;;;;;5061193;28;20484;-82
2021/06/09 06:19:51;;;;;;;4.07;3.38;;;16.30;57.80;;;;;;5051105;28;20511;-81
2021/06/09 06:22:19;;;;;;;5.20;3.45;;;16.40;57.80;;;;;;5061602;28;20028;-81
2021/06/09 06:24:48;;;;;;;3.67;3.33;;;16.60;58.10;;;;;;5066372;28;20036;-79
2021/06/09 06:27:15;;;;;;;4.07;3.72;;;16.70;58.20;;;;;;5078106;28;20504;-80
2021/06/09 06:29:45;;;;;;;3.47;3.17;;;16.90;58.40;;;;;;5067852;28;20028;-79
2021/06/09 06:32:14;;;;;;;3.22;2.90;;;17.00;58.50;;;;;;5068011;28;20119;-79
2021/06/09 06:34:51;;;;;;;3.17;2.88;;;17.20;58.80;;;;;;5066738;28;20024;-79
2021/06/09 06:37:20;;;;;;;3.67;3.15;;;17.30;59.00;;;;;;5049902;28;20040;-79
2021/06/09 06:39:46;;;;;;;3.22;2.92;;;17.50;59.20;;;;;;5067747;28;20040;-79
2021/06/09 06:42:13;;;;;;;3.60;3.30;;;17.80;59.70;;;;;;5067257;28;20029;-79
2021/06/09 06:44:41;;;;;;;2.88;2.67;;;18.10;60.10;;;;;;5067872;28;20591;-78
2021/06/09 06:47:08;;;;;;;2.97;2.75;;;18.50;60.70;;;;;;5065972;28;20071;-78
2021/06/09 06:49:36;;;;;;;3.30;3.00;;;18.90;60.90;;;;;;5046417;28;20467;-78
2021/06/09 06:52:03;;;;;;;3.33;3.03;;;19.30;61.10;;;;;;5030665;28;20044;-78
2021/06/09 06:54:30;;;;;;;3.20;2.90;;;19.70;61.20;;;;;;5049369;28;20029;-78
2021/06/09 06:56:57;;;;;;;2.67;2.47;;;20.20;61.60;;;;;;5049766;28;20040;-79
2021/06/09 06:59:25;;;;;;;3.35;3.05;;;20.70;61.70;;;;;;5067381;28;20032;-79
2021/06/09 07:01:51;;;;;;;2.85;2.35;;;21.00;61.40;;;;;;5067548;28;20496;-79
2021/06/09 07:04:19;;;;;;;3.97;3.08;;;21.40;61.40;;;;;;5067814;28;20064;-80
2021/06/09 07:06:47;;;;;;;2.72;2.47;;;21.80;61.30;;;;;;5032302;28;20059;-79
2021/06/09 07:09:15;;;;;;;2.58;2.30;;;22.10;60.90;;;;;;5066682;28;20456;-79
2021/06/09 07:11:46;;;;;;;2.60;2.40;;;22.30;60.60;;;;;;5049056;28;20066;-80
2021/06/09 07:14:14;;;;;;;3.42;2.38;;;22.40;60.20;;;;;;5067141;28;20942;-81
2021/06/09 07:16:43;;;;;;;3.17;2.58;;;22.50;60.00;;;;;;5067378;28;20077;-80
2021/06/09 07:19:10;;;;;;;3.33;2.70;;;22.50;59.80;;;;;;5066490;28;20076;-80
2021/06/09 07:21:39;;;;;;;2.70;2.50;;;22.60;59.80;;;;;;5067177;28;20067;-80
2021/06/09 07:24:06;;;;;;;2.90;2.35;;;22.60;59.60;;;;;;5066708;28;20037;-81
2021/06/09 07:26:40;;;;;;;2.60;2.30;;;22.70;59.60;;;;;;5067551;28;20096;-81
2021/06/09 07:29:07;;;;;;;2.40;2.20;;;22.90;59.90;;;;;;5049005;28;20045;-81
2021/06/09 07:31:36;;;;;;;2.55;2.35;;;23.40;60.40;;;;;;5067056;28;20094;-80
2021/06/09 07:34:04;;;;;;;3.90;1.73;;;23.90;60.50;;;;;;5066098;28;20826;-81
2021/06/09 07:36:35;;;;;;;2.22;2.03;;;24.40;60.40;;;;;;5067016;28;20285;-81
2021/06/09 07:39:07;;;;;;;1.98;1.83;;;25.00;60.30;;;;;;5066777;28;20036;-80
2021/06/09 07:41:36;;;;;;;2.22;2.03;;;25.50;59.50;;;;;;5066568;28;20028;-81
2021/06/09 07:44:05;;;;;;;2.10;1.90;;;26.00;58.90;;;;;;5047561;28;20506;-78
2021/06/09 07:46:33;;;;;;;2.20;1.73;;;26.40;58.00;;;;;;5057900;28;20226;-80
2021/06/09 07:49:02;;;;;;;1.73;1.63;;;26.80;57.30;;;;;;5045060;28;20032;-81
2021/06/09 07:51:29;;;;;;;4.30;1.98;;;27.30;56.70;;;;;;5046932;28;20051;-82
2021/06/09 07:54:00;;;;;;;2.00;1.83;;;27.70;55.90;;;;;;5062024;28;20128;-81
2021/06/09 07:56:34;;;;;;;2.55;1.67;;;28.10;55.20;;;;;;5066530;28;20116;-81
2021/06/09 07:59:03;;;;;;;2.47;1.60;;;28.50;54.50;;;;;;5034713;28;20033;-81
2021/06/09 08:01:29;;;;;;;1.67;1.58;;;28.90;53.80;;;;;;5046362;28;20028;-80
2021/06/09 08:03:57;;;;;;;5.18;1.80;;;29.40;53.20;;;;;;5044849;28;20475;-79
2021/06/09 08:06:24;;;;;;;1.50;1.30;;;29.70;52.40;;;;;;5048523;28;20029;-80
2021/06/09 08:08:51;;;;;;;1.55;1.42;;;30.00;51.60;;;;;;5045406;28;20035;-81
2021/06/09 08:11:18;;;;;;;2.20;1.65;;;30.50;51.10;;;;;;5044900;28;20033;-79
2021/06/09 08:13:45;;;;;;;2.05;1.52;;;30.80;50.30;;;;;;5060873;28;20054;-79
2021/06/09 08:16:13;;;;;;;2.08;1.67;;;31.20;49.60;;;;;;5048279;28;20176;-80
2021/06/09 08:18:39;;;;;;;1.48;1.38;;;31.60;48.90;;;;;;5045120;28;20070;-81
2021/06/09 08:21:09;;;;;;;1.65;1.20;;;32.00;48.30;;;;;;5046463;28;20033;-81
2021/06/09 08:23:36;;;;;;;1.77;1.23;;;32.40;47.50;;;;;;5045618;28;20029;-81
2021/06/09 08:26:04;;;;;;;1.40;1.30;;;32.80;46.80;;;;;;5046572;28;20029;-81
2021/06/09 08:28:34;;;;;;;1.90;1.10;;;33.10;46.00;;;;;;5047847;28;20120;-82
2021/06/09 08:31:01;;;;;;;1.27;1.17;;;33.50;45.50;;;;;;5048204;28;20043;-82
2021/06/09 08:33:27;;;;;;;1.33;1.02;;;33.50;45.00;;;;;;5066045;28;20059;-82
2021/06/09 08:35:53;;;;;;;1.38;1.27;;;33.40;44.90;;;;;;5048508;28;20054;-82
2021/06/09 08:38:20;;;;;;;1.30;1.15;;;33.20;44.90;;;;;;5045868;28;20454;-82
2021/06/09 08:40:46;;;;;;;1.67;1.13;;;33.00;45.10;;;;;;5055623;28;20051;-82
2021/06/09 08:43:14;;;;;;;1.02;1.00;;;32.60;45.40;;;;;;5065900;28;20074;-81
2021/06/09 08:45:41;;;;;;;2.25;1.02;;;32.70;45.50;;;;;;5047774;28;20020;-82
2021/06/09 08:48:07;;;;;;;1.83;1.08;;;33.00;44.90;;;;;;5045069;28;20033;-81
2021/06/09 08:50:34;;;;;;;1.48;1.08;;;33.00;44.70;;;;;;5046104;28;20073;-82
2021/06/09 08:53:06;;;;;;;2.45;1.50;;;32.70;44.80;;;;;;5054363;28;20281;-80
2021/06/09 08:55:33;;;;;;;1.65;1.00;;;32.70;45.00;;;;;;5047864;28;20067;-80
2021/06/09 08:58:03;;;;;;;2.60;1.00;;;32.80;44.80;;;;;;5066762;28;20035;-80
2021/06/09 09:00:32;;;;;;;1.13;1.02;;;33.00;44.60;;;;;;5066838;28;20098;-80
2021/06/09 09:03:00;;;;;;;1.20;1.10;;;33.20;44.10;;;;;;5065477;28;20037;-81
2021/06/09 09:05:27;;;;;;;1.38;1.05;;;33.40;43.80;;;;;;5067699;28;20381;-81
2021/06/09 09:07:57;;;;;;;1.25;0.98;;;33.30;44.00;;;;;;5070256;28;20028;-81
2021/06/09 09:10:26;;;;;;;1.10;1.00;;;33.00;44.40;;;;;;5070211;28;20082;-81
2021/06/09 09:12:53;;;;;;;0.85;0.85;;;32.80;44.80;;;;;;5069189;28;20484;-81
2021/06/09 09:15:19;;;;;;;1.67;1.10;;;32.60;45.20;;;;;;5052089;28;20032;-80
2021/06/09 09:18:03;;;;;;;1.25;1.15;;;32.50;45.50;;;;;;5069280;28;20024;-80
2021/06/09 09:20:31;;;;;;;1.25;1.10;;;32.50;45.60;;;;;;5069487;28;20052;-80
2021/06/09 09:22:59;;;;;;;2.75;1.80;;;32.50;45.50;;;;;;5047779;28;20087;-79
2021/06/09 09:25:28;;;;;;;1.10;1.10;;;32.60;44.80;;;;;;5043371;28;20365;-80
2021/06/09 09:27:58;;;;;;;2.28;1.50;;;32.50;44.60;;;;;;5035883;28;20032;-80
2021/06/09 09:30:27;;;;;;;1.67;1.42;;;32.50;44.60;;;;;;5069595;28;20044;-81
2021/06/09 09:33:02;;;;;;;1.95;1.30;;;32.50;44.60;;;;;;5047844;28;20033;-82
2021/06/09 09:35:41;;;;;;;1.42;1.33;;;32.50;44.60;;;;;;5050277;28;20091;-81
2021/06/09 09:38:22;;;;;;;1.27;1.05;;;32.40;44.60;;;;;;5043635;28;20028;-81
2021/06/09 09:41:12;;;;;;;2.08;1.40;;;32.30;44.80;;;;;;5014462;28;20067;-80
2021/06/09 09:43:42;;;;;;;4.82;1.50;;;32.20;45.00;;;;;;5044353;28;20062;-81
2021/06/09 09:46:10;;;;;;;1.73;1.35;;;32.10;45.30;;;;;;5050677;28;20067;-81
2021/06/09 09:48:40;;;;;;;1.10;1.10;;;32.00;45.50;;;;;;5068345;28;20039;-81
2021/06/09 09:51:06;;;;;;;2.72;1.10;;;31.90;45.70;;;;;;5067705;28;20078;-81
2021/06/09 09:53:32;;;;;;;2.17;1.42;;;31.80;45.90;;;;;;5050313;28;20025;-82
2021/06/09 09:56:01;;;;;;;1.48;1.23;;;31.90;46.00;;;;;;5068369;28;20047;-81
2021/06/09 09:58:28;;;;;;;1.33;1.23;;;31.90;46.00;;;;;;5068523;28;20801;-82
2021/06/09 10:01:16;;;;;;;1.83;1.42;;;31.90;46.10;;;;;;5068537;28;20491;-81
2021/06/09 10:03:46;;;;;;;2.20;1.38;;;32.00;46.20;;;;;;5047159;28;20240;-82
2021/06/09 10:06:23;;;;;;;1.30;1.20;;;32.10;46.80;;;;;;5048698;28;20074;-83
2021/06/09 10:08:51;;;;;;;1.33;1.23;;;32.10;46.20;;;;;;5047106;28;20032;-80
2021/06/09 10:11:20;;;;;;;0.95;0.90;;;32.10;46.30;;;;;;5048512;28;20060;-79
2021/06/09 10:13:46;;;;;;;1.85;1.20;;;32.10;46.30;;;;;;5063281;28;20025;-80
2021/06/09 10:16:23;;;;;;;1.75;1.65;;;32.10;46.50;;;;;;5067615;28;20048;-80
2021/06/09 10:19:10;;;;;;;1.38;1.27;;;32.10;46.50;;;;;;5046241;28;20039;-79
2021/06/09 10:21:51;;;;;;;1.88;1.13;;;32.10;46.50;;;;;;5046821;28;20029;-80
2021/06/09 10:24:17;;;;;;;2.50;1.55;;;32.20;46.60;;;;;;5066959;28;20032;-82
2021/06/09 10:26:52;;;;;;;2.35;1.38;;;32.30;46.60;;;;;;5068377;28;20032;-81
2021/06/09 10:29:22;;;;;;;1.83;1.50;;;32.40;46.60;;;;;;5067496;28;20047;-82
2021/06/09 10:31:59;;;;;;;1.30;1.20;;;32.50;46.70;;;;;;5067789;28;20063;-82
2021/06/09 10:34:32;;;;;;;1.48;1.38;;;32.50;46.70;;;;;;5067964;28;20115;-81
2021/06/09 10:36:59;;;;;;;1.33;1.23;;;32.50;46.70;;;;;;5067140;28;20033;-82
2021/06/09 10:39:28;;;;;;;1.42;1.23;;;32.50;46.80;;;;;;5068090;28;20123;-80
2021/06/09 10:41:57;;;;;;;1.80;1.45;;;32.50;46.80;;;;;;5068038;28;20032;-79
2021/06/09 10:44:26;;;;;;;1.30;1.20;;;32.60;46.80;;;;;;5067654;28;20500;-79
2021/06/09 10:46:58;;;;;;;1.40;1.30;;;32.70;46.70;;;;;;5068700;28;20117;-80
2021/06/09 10:49:25;;;;;;;1.55;1.45;;;32.80;46.80;;;;;;5070521;28;20044;-80
2021/06/09 10:51:54;;;;;;;1.63;1.52;;;32.80;46.80;;;;;;5049803;28;20040;-79
2021/06/09 10:54:24;;;;;;;1.85;1.30;;;32.70;46.70;;;;;;5067210;28;20063;-80
2021/06/09 10:56:51;;;;;;;1.63;1.50;;;32.80;46.90;;;;;;5049904;28;20379;-80
2021/06/09 10:59:20;;;;;;;2.83;1.45;;;32.90;47.00;;;;;;5067383;28;20097;-81
2021/06/09 11:01:48;;;;;;;1.80;1.23;;;33.00;46.80;;;;;;5067746;28;20044;-80
2021/06/09 11:04:14;;;;;;;1.98;1.48;;;33.20;46.80;;;;;;5067045;28;20021;-80
2021/06/09 11:06:50;;;;;;;3.75;1.38;;;33.40;46.70;;;;;;5067294;28;20115;-80
2021/06/09 11:09:21;;;;;;;1.42;1.33;;;33.60;46.60;;;;;;5049394;28;20048;-80
2021/06/09 11:12:11;;;;;;;1.42;1.02;;;33.80;46.50;;;;;;5049949;28;20020;-81
2021/06/09 11:14:54;;;;;;;1.65;1.40;;;33.90;46.30;;;;;;5065585;28;20032;-82
2021/06/09 11:17:33;;;;;;;2.05;1.30;;;34.00;46.30;;;;;;5049907;28;20028;-78
2021/06/09 11:20:13;;;;;;;2.72;1.80;;;33.90;46.30;;;;;;5066953;28;20033;-82
2021/06/09 11:22:46;;;;;;;2.70;1.77;;;33.90;46.40;;;;;;5048836;28;20124;-79
2021/06/09 11:25:33;;;;;;;2.20;1.35;;;33.90;46.40;;;;;;5049122;28;20039;-80
2021/06/09 11:28:07;;;;;;;1.75;1.50;;;34.00;46.40;;;;;;5067204;28;20039;-80
2021/06/09 11:30:33;;;;;;;1.95;1.70;;;34.10;46.40;;;;;;5066755;28;20067;-79
2021/06/09 11:33:05;;;;;;;1.70;1.52;;;34.30;46.30;;;;;;5049531;28;20483;-81
2021/06/09 11:35:41;;;;;;;;;;;34.40;46.20;;;;;;5066997;28;20044;-81
2021/06/09 11:38:13;;;;;;;1.70;1.60;;;34.70;46.30;;;;;;5048554;28;19912;-79
2021/06/09 11:40:57;;;;;;;1.60;1.50;;;34.90;46.00;;;;;;5066694;28;20032;-81
2021/06/09 11:43:24;;;;;;;2.03;1.52;;;35.20;45.80;;;;;;5045872;28;20079;-81
2021/06/09 11:45:59;;;;;;;1.60;1.50;;;35.40;45.50;;;;;;5044978;28;20040;-81
2021/06/09 11:48:27;;;;;;;1.80;1.20;;;35.50;45.20;;;;;;5054804;28;20047;-82
2021/06/09 11:51:14;;;;;;;2.42;1.52;;;35.50;45.10;;;;;;5048628;28;20421;-81
2021/06/09 11:53:43;;;;;;;2.85;1.45;;;35.50;45.20;;;;;;5066799;28;20032;-82
2021/06/09 11:56:15;;;;;;;1.45;1.35;;;35.60;45.20;;;;;;5066451;28;20495;-82
2021/06/09 11:58:43;;;;;;;;;;;35.70;45.00;;;;;;5049527;28;20040;-84
2021/06/09 12:01:11;;;;;;;2.30;1.40;;;35.80;45.30;;;;;;5066280;28;20421;-85
2021/06/09 12:03:42;;;;;;;2.50;1.67;;;35.70;45.10;;;;;;5045468;28;20389;-83
2021/06/09 12:06:20;;;;;;;2.03;1.58;;;35.60;45.10;;;;;;5046515;28;20033;-82
2021/06/09 12:08:51;;;;;;;2.20;1.70;;;35.40;45.20;;;;;;5045659;28;20025;-81
2021/06/09 12:11:18;;;;;;;1.65;1.30;;;35.30;45.40;;;;;;5047043;28;20029;-83
2021/06/09 12:13:45;;;;;;;2.85;1.13;;;35.20;45.50;;;;;;5060811;28;20036;-81
2021/06/09 12:16:15;;;;;;;2.10;1.50;;;35.20;45.70;;;;;;5066728;28;20502;-81
2021/06/09 12:18:44;;;;;;;1.85;1.38;;;35.20;45.80;;;;;;5066632;28;20387;-81
2021/06/09 12:21:14;;;;;;;1.88;1.40;;;35.10;45.80;;;;;;5065978;28;20033;-81
2021/06/09 12:23:58;;;;;;;1.50;1.20;;;35.10;45.90;;;;;;5045399;28;20017;-80
2021/06/09 12:26:24;;;;;;;1.13;1.02;;;35.00;46.00;;;;;;5046425;28;20051;-81
2021/06/09 12:29:07;;;;;;;2.20;1.60;;;35.00;46.00;;;;;;5044968;28;20496;-81
2021/06/09 12:31:36;;;;;;;1.58;1.40;;;35.00;46.10;;;;;;5045023;28;20082;-81
2021/06/09 12:34:04;;;;;;;2.22;1.20;;;35.00;46.00;;;;;;5062224;28;20090;-81
2021/06/09 12:36:30;;;;;;;1.48;1.30;;;35.00;46.10;;;;;;5048729;28;20024;-81
2021/06/09 12:38:57;;;;;;;1.38;1.27;;;34.90;46.10;;;;;;5066622;28;20028;-79
2021/06/09 12:41:30;;;;;;;1.58;1.20;;;34.90;46.20;;;;;;5069280;28;20099;-80
2021/06/09 12:44:10;;;;;;;1.67;1.50;;;35.00;46.30;;;;;;5049296;28;20115;-81
2021/06/09 12:46:36;;;;;;;1.40;1.30;;;35.00;46.30;;;;;;5049344;28;20080;-82
2021/06/09 12:49:02;;;;;;;1.38;1.25;;;35.00;46.30;;;;;;5062998;28;20096;-81
2021/06/09 12:51:28;;;;;;;1.30;1.20;;;35.10;46.30;;;;;;5062363;28;20029;-80
2021/06/09 12:53:54;;;;;;;1.40;1.23;;;35.10;46.30;;;;;;5069940;28;20033;-81
2021/06/09 12:56:21;;;;;;;1.38;1.27;;;35.10;46.30;;;;;;5070586;28;20033;-81
2021/06/09 12:58:50;;;;;;;2.20;1.20;;;35.10;46.40;;;;;;5048556;28;20037;-81
2021/06/09 13:01:16;;;;;;;1.40;1.30;;;35.10;46.40;;;;;;5050154;28;21097;-82
2021/06/09 13:03:46;;;;;;;1.33;1.23;;;35.10;46.40;;;;;;5062464;28;20036;-81
2021/06/09 13:06:18;;;;;;;2.00;1.45;;;35.20;46.40;;;;;;5063290;28;20067;-81